Time;durP1;ratioP1;P1;durP2;ratioP2;P2;SDS_P1;SDS_P2;PMS_P1;PMS_P2;Temp;Humidity;BMP_temperature;BMP_pressure;BME280_temperature;BME280_humidity;BME280_pressure;Samples;Min_cycle;Max_cycle;Signal;HPM_P1;HPM_P2
2022/09/27 00:01:11;;;;;;;0.05;0.05;;;9.60;99.90;;;;;;6193238;23;20012;-85
2022/09/27 00:03:37;;;;;;;0.00;0.00;;;9.60;99.90;;;;;;6218496;23;20016;-85
2022/09/27 00:06:11;;;;;;;0.00;0.00;;;9.40;99.90;;;;;;6193082;23;20146;-85
2022/09/27 00:08:37;;;;;;;0.73;0.20;;;9.50;99.90;;;;;;6219014;23;20016;-85
2022/09/27 00:11:05;;;;;;;0.00;0.00;;;9.50;99.90;;;;;;6193153;23;20630;-85
2022/09/27 00:13:31;;;;;;;0.00;0.00;;;9.50;99.90;;;;;;6218437;23;20070;-85
2022/09/27 00:15:59;;;;;;;0.00;0.00;;;9.40;99.90;;;;;;6168701;23;20066;-85
2022/09/27 00:18:26;;;;;;;0.00;0.00;;;9.50;99.90;;;;;;6219001;23;20050;-85
2022/09/27 00:20:52;;;;;;;0.00;0.00;;;9.40;99.90;;;;;;6217899;23;20438;-85
2022/09/27 00:23:18;;;;;;;0.00;0.00;;;9.40;99.90;;;;;;6168982;23;20016;-85
2022/09/27 00:25:55;;;;;;;0.00;0.00;;;10.20;99.90;;;;;;6193671;23;20316;-85
2022/09/27 00:28:21;;;;;;;0.00;0.00;;;9.40;99.90;;;;;;6218411;23;20009;-85
2022/09/27 00:30:47;;;;;;;0.03;0.00;;;9.40;99.90;;;;;;6193028;23;20428;-86
2022/09/27 00:33:13;;;;;;;0.20;0.00;;;9.30;99.90;;;;;;6169499;23;20015;-85
2022/09/27 00:35:39;;;;;;;0.00;0.00;;;9.30;99.90;;;;;;6169693;23;20024;-85
2022/09/27 00:38:05;;;;;;;0.00;0.00;;;9.30;99.90;;;;;;6193737;23;20023;-85
2022/09/27 00:40:31;;;;;;;0.08;0.08;;;9.30;99.90;;;;;;6219370;23;20065;-85
2022/09/27 00:42:57;;;;;;;0.00;0.00;;;9.20;99.90;;;;;;6193737;23;20086;-85
2022/09/27 00:45:23;;;;;;;0.00;0.00;;;9.20;99.90;;;;;;6169906;23;20027;-84
2022/09/27 00:47:54;;;;;;;0.00;0.00;;;9.30;99.90;;;;;;6194042;23;20016;-87
2022/09/27 00:50:38;;;;;;;0.00;0.00;;;9.30;99.90;;;;;;6219584;23;20012;-84
2022/09/27 00:53:12;;;;;;;0.00;0.00;;;9.30;99.90;;;;;;6193079;23;20086;-84
2022/09/27 00:55:49;;;;;;;0.00;0.00;;;9.30;99.90;;;;;;6194283;23;20018;-84
2022/09/27 00:58:20;;;;;;;0.00;0.00;;;9.20;99.90;;;;;;6219591;23;20047;-84
2022/09/27 01:00:50;;;;;;;0.00;0.00;;;9.20;99.90;;;;;;6218840;23;20247;-84
2022/09/27 01:03:28;;;;;;;0.00;0.00;;;9.20;99.90;;;;;;6218532;23;20015;-85
2022/09/27 01:05:54;;;;;;;0.00;0.00;;;9.20;99.90;;;;;;6193687;23;20105;-84
2022/09/27 01:08:20;;;;;;;0.00;0.00;;;9.20;99.90;;;;;;6193987;23;20020;-84
2022/09/27 01:11:00;;;;;;;0.00;0.00;;;9.20;99.90;;;;;;6193937;23;20004;-84
2022/09/27 01:13:37;;;;;;;0.00;0.00;;;9.20;99.90;;;;;;6218378;23;20073;-84
2022/09/27 01:16:15;;;;;;;0.00;0.00;;;9.10;99.90;;;;;;6218617;23;20019;-84
2022/09/27 01:19:00;;;;;;;;;;;9.10;99.90;;;;;;6194676;23;20066;-84
2022/09/27 01:21:54;;;;;;;0.00;0.00;;;9.20;99.90;;;;;;6193941;23;19947;-84
2022/09/27 01:24:42;;;;;;;0.10;0.00;;;9.10;99.90;;;;;;6190103;23;20012;-84
2022/09/27 01:27:31;;;;;;;0.00;0.00;;;9.10;99.90;;;;;;6193321;23;20034;-84
2022/09/27 01:30:16;;;;;;;0.00;0.00;;;9.10;99.90;;;;;;6218372;23;20054;-84
2022/09/27 01:32:54;;;;;;;0.10;0.00;;;9.00;99.90;;;;;;6193759;23;20016;-84
2022/09/27 01:35:32;;;;;;;0.10;0.00;;;9.00;99.90;;;;;;6193446;23;20012;-84
2022/09/27 01:38:13;;;;;;;0.00;0.00;;;9.00;99.90;;;;;;6192980;23;20051;-84
2022/09/27 01:40:48;;;;;;;0.08;0.00;;;9.00;99.90;;;;;;6193935;23;20099;-84
2022/09/27 01:43:22;;;;;;;0.00;0.00;;;9.00;99.90;;;;;;6218369;23;20082;-84
2022/09/27 01:46:13;;;;;;;0.47;0.00;;;9.00;99.90;;;;;;6193589;23;20023;-83
2022/09/27 01:48:45;;;;;;;0.00;0.00;;;9.00;99.90;;;;;;6187486;23;20043;-84
2022/09/27 01:51:22;;;;;;;0.00;0.00;;;9.00;99.90;;;;;;6193216;23;20019;-84
2022/09/27 01:53:53;;;;;;;0.00;0.00;;;9.00;99.90;;;;;;6193373;23;20016;-84
2022/09/27 01:56:42;;;;;;;0.00;0.00;;;9.00;99.90;;;;;;6193173;23;20012;-84
2022/09/27 01:59:40;;;;;;;0.00;0.00;;;9.00;99.90;;;;;;6193361;23;20083;-84
2022/09/27 02:02:08;;;;;;;0.00;0.00;;;9.00;99.90;;;;;;6187081;23;20056;-84
2022/09/27 02:04:37;;;;;;;0.00;0.00;;;9.00;99.90;;;;;;6193189;23;20051;-84
2022/09/27 02:07:29;;;;;;;0.88;0.00;;;9.00;99.90;;;;;;6192786;23;20016;-84
2022/09/27 02:10:04;;;;;;;0.00;0.00;;;9.00;99.90;;;;;;6218713;23;20048;-84
2022/09/27 02:12:34;;;;;;;0.10;0.00;;;7.90;99.90;;;;;;6193724;23;20015;-84
2022/09/27 02:15:05;;;;;;;0.00;0.00;;;9.00;99.90;;;;;;6193751;23;20383;-84
2022/09/27 02:17:34;;;;;;;0.00;0.00;;;9.00;99.90;;;;;;6193440;23;20016;-84
2022/09/27 02:20:16;;;;;;;0.00;0.00;;;8.90;99.90;;;;;;6193533;23;20008;-84
2022/09/27 02:22:48;;;;;;;0.00;0.00;;;9.00;99.90;;;;;;6193424;23;20019;-84
2022/09/27 02:25:27;;;;;;;0.00;0.00;;;9.00;99.90;;;;;;6193908;23;20022;-83
2022/09/27 02:28:09;;;;;;;0.00;0.00;;;9.00;99.90;;;;;;6195543;23;20016;-83
2022/09/27 02:30:35;;;;;;;0.00;0.00;;;9.00;99.90;;;;;;6220919;23;20011;-83
2022/09/27 02:33:01;;;;;;;0.00;0.00;;;9.00;99.90;;;;;;6170774;23;20016;-84
2022/09/27 02:35:32;;;;;;;0.00;0.00;;;9.00;99.90;;;;;;6194584;23;20016;-84
2022/09/27 02:37:58;;;;;;;0.00;0.00;;;9.00;99.90;;;;;;6170255;23;20016;-84
2022/09/27 02:40:28;;;;;;;0.00;0.00;;;9.00;99.90;;;;;;6194922;23;20234;-84
2022/09/27 02:42:54;;;;;;;0.00;0.00;;;9.00;99.90;;;;;;6195422;23;20723;-84
2022/09/27 02:45:21;;;;;;;0.00;0.00;;;9.00;99.90;;;;;;6170268;23;20016;-83
2022/09/27 02:48:19;;;;;;;0.00;0.00;;;9.00;99.90;;;;;;6219905;23;20091;-83
2022/09/27 02:50:50;;;;;;;0.00;0.00;;;9.00;99.90;;;;;;6220425;23;20020;-84
2022/09/27 02:53:45;;;;;;;0.00;0.00;;;9.00;99.90;;;;;;6194836;23;20066;-84
2022/09/27 02:56:38;;;;;;;0.00;0.00;;;7.70;99.90;;;;;;6194748;23;20047;-84
2022/09/27 02:59:27;;;;;;;0.00;0.00;;;9.00;99.90;;;;;;6220386;23;20040;-83
2022/09/27 03:02:17;;;;;;;0.88;0.10;;;9.00;99.90;;;;;;6195478;23;20028;-84
2022/09/27 03:04:52;;;;;;;0.00;0.00;;;8.90;99.90;;;;;;6194823;23;20016;-84
2022/09/27 03:07:18;;;;;;;0.00;0.00;;;8.90;99.90;;;;;;6194813;23;20016;-83
2022/09/27 03:09:54;;;;;;;0.00;0.00;;;8.90;99.90;;;;;;6170333;23;20012;-83
2022/09/27 03:12:24;;;;;;;1.00;0.10;;;8.90;99.90;;;;;;6219647;23;20019;-84
2022/09/27 03:14:56;;;;;;;0.00;0.00;;;8.80;99.90;;;;;;6171767;23;20012;-83
2022/09/27 03:17:22;;;;;;;0.00;0.00;;;8.80;99.90;;;;;;6219811;23;20012;-83
2022/09/27 03:19:48;;;;;;;0.00;0.00;;;8.80;99.90;;;;;;6194951;23;20014;-83
2022/09/27 03:22:14;;;;;;;0.00;0.00;;;8.80;99.90;;;;;;6194672;23;20043;-84
2022/09/27 03:24:40;;;;;;;0.00;0.00;;;9.10;99.90;;;;;;6195083;23;20012;-83
2022/09/27 03:27:06;;;;;;;0.00;0.00;;;8.80;99.90;;;;;;6195028;23;20020;-83
2022/09/27 03:29:31;;;;;;;0.00;0.00;;;8.80;99.90;;;;;;6169414;23;20015;-83
2022/09/27 03:31:57;;;;;;;0.00;0.00;;;9.30;99.90;;;;;;6194894;23;20012;-83
2022/09/27 03:34:23;;;;;;;0.00;0.00;;;8.80;99.90;;;;;;6219621;23;20043;-83
2022/09/27 03:36:49;;;;;;;0.00;0.00;;;8.80;99.90;;;;;;6219472;23;20012;-83
2022/09/27 03:39:15;;;;;;;0.00;0.00;;;8.70;99.90;;;;;;6194592;23;20070;-84
2022/09/27 03:41:41;;;;;;;0.00;0.00;;;8.80;99.90;;;;;;6170159;23;20324;-83
2022/09/27 03:44:07;;;;;;;0.00;0.00;;;8.70;99.90;;;;;;6219887;23;20012;-83
2022/09/27 03:46:33;;;;;;;0.00;0.00;;;8.70;99.90;;;;;;6194178;23;20020;-83
2022/09/27 03:48:59;;;;;;;0.00;0.00;;;8.70;99.90;;;;;;6194774;23;20005;-84
2022/09/27 03:51:25;;;;;;;0.00;0.00;;;8.60;99.90;;;;;;6194284;23;20063;-83
2022/09/27 03:53:50;;;;;;;0.03;0.03;;;8.60;99.90;;;;;;6170040;23;20013;-83
2022/09/27 03:56:17;;;;;;;0.00;0.00;;;8.60;99.90;;;;;;6194378;23;20025;-84
2022/09/27 03:58:43;;;;;;;0.00;0.00;;;8.60;99.90;;;;;;6170123;23;20187;-83
2022/09/27 04:01:09;;;;;;;0.00;0.00;;;8.60;99.90;;;;;;6194511;23;20269;-83
2022/09/27 04:03:35;;;;;;;0.00;0.00;;;8.60;99.90;;;;;;6169036;23;20094;-83
2022/09/27 04:06:01;;;;;;;0.00;0.00;;;8.60;99.90;;;;;;6194792;23;20020;-83
2022/09/27 04:08:28;;;;;;;;;;;8.90;99.90;;;;;;6219618;23;20015;-83
2022/09/27 04:10:54;;;;;;;0.00;0.00;;;8.60;99.90;;;;;;6194283;23;19915;-83
2022/09/27 04:13:20;;;;;;;0.00;0.00;;;8.60;99.90;;;;;;6193965;23;20016;-83
2022/09/27 04:15:46;;;;;;;0.00;0.00;;;8.60;99.90;;;;;;6194650;23;20012;-83
2022/09/27 04:18:11;;;;;;;0.00;0.00;;;8.60;99.90;;;;;;6194581;23;20087;-84
2022/09/27 04:20:37;;;;;;;0.00;0.00;;;8.60;99.90;;;;;;6169263;23;20016;-83
2022/09/27 04:23:03;;;;;;;0.00;0.00;;;8.60;99.90;;;;;;6194476;23;20012;-83
2022/09/27 04:25:29;;;;;;;0.20;0.20;;;8.60;99.90;;;;;;6168873;23;20008;-83
2022/09/27 04:27:54;;;;;;;0.00;0.00;;;8.60;99.90;;;;;;6194476;23;20078;-83
2022/09/27 04:30:21;;;;;;;0.00;0.00;;;8.60;99.90;;;;;;6169104;23;20070;-83
2022/09/27 04:32:47;;;;;;;0.00;0.00;;;8.60;99.90;;;;;;6194489;23;20368;-83
2022/09/27 04:37:58;;;;;;;0.00;0.00;;;8.60;99.90;;;;;;6198184;23;20085;-83
2022/09/27 04:40:25;;;;;;;0.00;0.00;;;8.60;99.90;;;;;;6193844;23;20016;-83
2022/09/27 04:42:51;;;;;;;0.00;0.00;;;8.60;99.90;;;;;;6193821;23;20146;-83
2022/09/27 04:45:18;;;;;;;0.00;0.00;;;8.60;99.90;;;;;;6194222;23;20008;-83
2022/09/27 04:47:48;;;;;;;0.00;0.00;;;8.50;99.90;;;;;;6193684;23;20102;-83
2022/09/27 04:50:19;;;;;;;0.00;0.00;;;8.50;99.90;;;;;;6194068;23;20008;-83
2022/09/27 04:52:52;;;;;;;0.00;0.00;;;8.50;99.90;;;;;;6193585;23;20306;-83
2022/09/27 04:55:19;;;;;;;0.00;0.00;;;8.50;99.90;;;;;;6194426;23;20012;-83
2022/09/27 04:57:46;;;;;;;0.55;0.55;;;9.20;99.90;;;;;;6169018;23;20027;-83
2022/09/27 05:00:12;;;;;;;0.00;0.00;;;8.50;99.90;;;;;;6169546;23;20012;-83
2022/09/27 05:02:39;;;;;;;0.00;0.00;;;8.50;99.90;;;;;;6193946;23;20016;-84
2022/09/27 05:05:05;;;;;;;0.00;0.00;;;8.50;99.90;;;;;;6144566;23;20086;-83
2022/09/27 05:07:33;;;;;;;0.00;0.00;;;8.50;99.90;;;;;;6144335;23;20012;-83
2022/09/27 05:09:58;;;;;;;0.00;0.00;;;8.50;99.90;;;;;;6218700;23;20019;-83
2022/09/27 05:12:25;;;;;;;0.00;0.00;;;8.50;99.90;;;;;;6169288;23;20436;-83
2022/09/27 05:14:52;;;;;;;0.00;0.00;;;8.50;99.90;;;;;;6169340;23;20018;-83
2022/09/27 05:17:19;;;;;;;0.00;0.00;;;8.50;99.90;;;;;;6193922;23;20335;-83
2022/09/27 05:19:45;;;;;;;0.00;0.00;;;8.40;99.90;;;;;;6144376;23;20008;-83
2022/09/27 05:22:11;;;;;;;0.00;0.00;;;8.40;99.90;;;;;;6193824;23;20100;-83
2022/09/27 05:24:37;;;;;;;0.00;0.00;;;8.40;99.90;;;;;;6193604;23;20012;-83
2022/09/27 05:27:07;;;;;;;0.00;0.00;;;8.40;99.90;;;;;;6169265;23;20444;-83
2022/09/27 05:29:33;;;;;;;0.00;0.00;;;8.30;99.90;;;;;;6218562;23;20097;-83
2022/09/27 05:32:00;;;;;;;0.00;0.00;;;8.30;99.90;;;;;;6144630;23;20008;-83
2022/09/27 05:34:26;;;;;;;0.00;0.00;;;8.30;99.90;;;;;;6194180;23;20051;-83
2022/09/27 05:36:52;;;;;;;0.00;0.00;;;8.30;99.90;;;;;;6192926;23;20455;-83
2022/09/27 05:39:18;;;;;;;0.00;0.00;;;8.30;99.90;;;;;;6219005;23;20014;-83
2022/09/27 05:41:45;;;;;;;0.07;0.07;;;8.30;99.90;;;;;;6218116;23;20016;-83
2022/09/27 05:44:12;;;;;;;0.00;0.00;;;8.20;99.90;;;;;;6193819;23;20016;-83
2022/09/27 05:46:38;;;;;;;0.00;0.00;;;8.20;99.90;;;;;;6168678;23;20011;-83
2022/09/27 05:49:04;;;;;;;0.15;0.08;;;8.20;99.90;;;;;;6193845;23;20065;-83
2022/09/27 05:51:30;;;;;;;0.90;0.00;;;8.90;99.90;;;;;;6217979;23;20087;-85
2022/09/27 05:53:56;;;;;;;0.00;0.00;;;8.20;99.90;;;;;;6218726;23;20008;-83
2022/09/27 05:56:23;;;;;;;0.00;0.00;;;8.20;99.90;;;;;;6193746;23;20515;-83
2022/09/27 05:58:49;;;;;;;0.00;0.00;;;8.20;99.90;;;;;;6217857;23;20455;-83
2022/09/27 06:01:15;;;;;;;0.03;0.00;;;8.20;99.90;;;;;;6193220;23;20013;-84
2022/09/27 06:03:41;;;;;;;0.00;0.00;;;8.20;99.90;;;;;;6192940;23;20255;-83
2022/09/27 06:06:09;;;;;;;0.00;0.00;;;8.20;99.90;;;;;;6218635;23;20101;-83
2022/09/27 06:08:37;;;;;;;0.00;0.00;;;8.20;99.90;;;;;;6193043;23;20012;-84
2022/09/27 06:11:11;;;;;;;0.08;0.08;;;8.20;99.90;;;;;;6243659;23;20086;-83
2022/09/27 06:13:38;;;;;;;0.00;0.00;;;8.20;99.90;;;;;;6192820;23;20019;-83
2022/09/27 06:16:05;;;;;;;0.00;0.00;;;8.20;99.90;;;;;;6218371;23;20071;-83
2022/09/27 06:18:30;;;;;;;;;;;8.20;99.90;;;;;;6193910;23;20008;-83
2022/09/27 06:20:59;;;;;;;0.00;0.00;;;9.00;99.90;;;;;;6218152;23;20352;-83
2022/09/27 06:23:25;;;;;;;0.00;0.00;;;8.20;99.90;;;;;;6218530;23;20016;-83
2022/09/27 06:25:52;;;;;;;0.00;0.00;;;8.20;99.90;;;;;;6192815;23;20293;-84
2022/09/27 06:28:17;;;;;;;0.43;0.10;;;8.10;99.90;;;;;;6168401;23;20332;-83
2022/09/27 06:30:45;;;;;;;0.00;0.00;;;8.20;99.90;;;;;;6143068;23;20047;-83
2022/09/27 06:33:14;;;;;;;0.03;0.00;;;8.20;99.90;;;;;;6168652;23;20031;-83
2022/09/27 06:35:41;;;;;;;0.20;0.10;;;8.20;99.90;;;;;;6217783;23;20016;-83
2022/09/27 06:38:10;;;;;;;0.00;0.00;;;8.20;99.90;;;;;;6218314;23;20012;-83
2022/09/27 06:40:36;;;;;;;0.00;0.00;;;8.60;99.90;;;;;;6218430;23;20464;-83
2022/09/27 06:43:08;;;;;;;0.00;0.00;;;8.30;99.90;;;;;;6193376;23;20012;-83
2022/09/27 06:45:34;;;;;;;0.35;0.00;;;8.30;99.90;;;;;;6193428;23;20020;-83
2022/09/27 06:48:11;;;;;;;0.00;0.00;;;8.40;99.90;;;;;;6218114;23;20008;-88
2022/09/27 06:50:40;;;;;;;;;;;9.30;99.90;;;;;;6218955;23;20048;-86
2022/09/27 06:53:09;;;;;;;0.00;0.00;;;8.60;99.90;;;;;;6218828;23;19918;-86
2022/09/27 06:55:36;;;;;;;0.00;0.00;;;9.00;99.90;;;;;;6192805;23;20073;-86
2022/09/27 07:00:54;;;;;;;0.22;0.00;;;9.50;99.90;;;;;;6217796;23;20452;-86
2022/09/27 07:03:31;;;;;;;0.00;0.00;;;9.90;99.90;;;;;;6192552;23;20023;-83
2022/09/27 07:06:02;;;;;;;0.00;0.00;;;10.20;99.90;;;;;;6218127;23;20318;-85
2022/09/27 07:08:32;;;;;;;0.00;0.00;;;10.40;99.90;;;;;;6193027;23;20302;-85
2022/09/27 07:11:04;;;;;;;0.00;0.00;;;10.50;99.90;;;;;;6193351;23;20018;-86
2022/09/27 07:13:31;;;;;;;0.00;0.00;;;10.60;99.90;;;;;;6194500;23;20081;-86
2022/09/27 07:16:00;;;;;;;0.00;0.00;;;10.60;99.90;;;;;;6193769;23;20331;-90
2022/09/27 07:18:26;;;;;;;0.00;0.00;;;10.60;99.90;;;;;;6194436;23;20023;-86
2022/09/27 07:20:52;;;;;;;0.00;0.00;;;10.40;99.90;;;;;;6193834;23;20297;-85
2022/09/27 07:23:19;;;;;;;0.00;0.00;;;10.30;99.90;;;;;;6194256;23;20078;-86
2022/09/27 07:25:46;;;;;;;0.00;0.00;;;10.10;99.90;;;;;;6219240;23;20031;-86
2022/09/27 07:28:15;;;;;;;0.00;0.00;;;10.00;99.90;;;;;;6218784;23;20450;-86
2022/09/27 07:30:48;;;;;;;0.00;0.00;;;10.00;99.90;;;;;;6194615;23;20062;-93
2022/09/27 07:33:14;;;;;;;1.90;0.03;;;10.00;99.90;;;;;;6219528;23;20008;-85
2022/09/27 07:35:41;;;;;;;0.00;0.00;;;9.90;99.90;;;;;;6194550;23;20008;-85
2022/09/27 07:38:11;;;;;;;0.00;0.00;;;8.90;99.90;;;;;;6193774;23;20508;-86
2022/09/27 07:40:39;;;;;;;0.00;0.00;;;10.00;99.90;;;;;;6194423;23;20019;-85
2022/09/27 07:43:11;;;;;;;0.00;0.00;;;9.90;99.90;;;;;;6193426;23;20177;-85
2022/09/27 07:45:37;;;;;;;0.00;0.00;;;9.90;99.90;;;;;;6195711;23;20458;-86
2022/09/27 07:48:09;;;;;;;0.10;0.00;;;9.90;99.90;;;;;;6218854;23;20012;-85
2022/09/27 07:50:37;;;;;;;0.00;0.00;;;9.90;99.90;;;;;;6218894;23;20012;-86
2022/09/27 07:53:03;;;;;;;0.00;0.00;;;9.80;99.90;;;;;;6218553;23;20048;-84
2022/09/27 07:55:32;;;;;;;;;;;9.70;99.90;;;;;;6220045;23;20052;-84
2022/09/27 07:58:11;;;;;;;0.22;0.00;;;10.70;99.90;;;;;;6193888;23;19911;-86
2022/09/27 08:00:39;;;;;;;0.00;0.00;;;9.80;99.90;;;;;;6195236;23;20023;-87
2022/09/27 08:03:14;;;;;;;0.00;0.00;;;9.90;99.90;;;;;;6193357;23;20762;-87
2022/09/27 08:05:41;;;;;;;0.00;0.00;;;10.20;99.90;;;;;;6195084;23;20098;-87
2022/09/27 08:08:06;;;;;;;0.08;0.08;;;10.50;99.90;;;;;;6195143;23;20019;-87
2022/09/27 08:10:33;;;;;;;0.00;0.00;;;10.80;99.90;;;;;;6219937;23;20336;-87
2022/09/27 08:13:03;;;;;;;;;;;11.00;99.90;;;;;;6195014;23;20483;-87
2022/09/27 08:15:34;;;;;;;0.10;0.10;;;11.10;99.90;;;;;;6195038;23;19916;-87
2022/09/27 08:18:00;;;;;;;0.00;0.00;;;11.10;99.90;;;;;;6219468;23;20345;-87
2022/09/27 08:20:26;;;;;;;0.00;0.00;;;11.20;99.90;;;;;;6194680;23;20016;-87
2022/09/27 08:22:52;;;;;;;0.00;0.00;;;11.20;99.90;;;;;;6194583;23;20023;-86
2022/09/27 08:25:17;;;;;;;0.00;0.00;;;11.20;99.90;;;;;;6219898;23;20102;-88
2022/09/27 08:27:43;;;;;;;0.57;0.10;;;11.20;99.90;;;;;;6168273;23;20020;-88
2022/09/27 08:30:09;;;;;;;0.00;0.00;;;11.30;99.90;;;;;;6194119;23;20008;-87
2022/09/27 08:32:36;;;;;;;0.00;0.00;;;11.30;99.90;;;;;;6219719;23;20016;-87
2022/09/27 08:35:06;;;;;;;0.00;0.00;;;11.50;99.90;;;;;;6194245;23;20027;-87
2022/09/27 08:37:31;;;;;;;0.00;0.00;;;12.60;99.90;;;;;;6194872;23;20027;-88
2022/09/27 08:39:58;;;;;;;0.00;0.00;;;11.60;99.90;;;;;;6194177;23;20341;-88
2022/09/27 08:42:44;;;;;;;0.00;0.00;;;11.70;99.90;;;;;;6194132;23;20464;-87
2022/09/27 08:45:17;;;;;;;0.00;0.00;;;11.70;99.90;;;;;;6193912;23;20020;-88
2022/09/27 08:47:55;;;;;;;0.00;0.00;;;11.70;99.90;;;;;;6194635;23;20019;-87
2022/09/27 08:50:41;;;;;;;0.10;0.10;;;11.70;99.90;;;;;;6194455;23;20013;-87
2022/09/27 08:53:13;;;;;;;0.00;0.00;;;11.60;99.90;;;;;;6219104;23;20016;-88
2022/09/27 08:55:48;;;;;;;0.05;0.00;;;11.50;99.90;;;;;;6219371;23;20022;-87
2022/09/27 08:58:27;;;;;;;0.00;0.00;;;11.50;99.90;;;;;;6193532;23;20020;-87
2022/09/27 09:00:57;;;;;;;0.00;0.00;;;11.70;99.90;;;;;;6193967;23;20028;-86
2022/09/27 09:03:29;;;;;;;0.00;0.00;;;11.90;99.90;;;;;;6193843;23;20475;-86
2022/09/27 09:06:27;;;;;;;0.00;0.00;;;11.90;99.90;;;;;;6199224;23;20042;-88
2022/09/27 09:09:18;;;;;;;0.00;0.00;;;11.90;99.90;;;;;;6219508;23;20396;-89
2022/09/27 09:14:56;;;;;;;0.00;0.00;;;11.70;99.90;;;;;;6219290;23;20024;-89
2022/09/27 09:17:29;;;;;;;0.00;0.00;;;11.70;99.90;;;;;;6193350;23;20016;-88
2022/09/27 09:20:31;;;;;;;0.00;0.00;;;11.70;99.90;;;;;;6194270;23;20536;-89
2022/09/27 09:23:20;;;;;;;0.00;0.00;;;11.60;99.90;;;;;;6194815;23;20024;-90
2022/09/27 09:25:53;;;;;;;0.00;0.00;;;11.60;99.90;;;;;;6220761;23;20016;-89
2022/09/27 09:28:56;;;;;;;0.00;0.00;;;11.50;99.90;;;;;;6193717;23;20023;-90
2022/09/27 09:31:41;;;;;;;0.00;0.00;;;11.50;99.90;;;;;;6193269;23;20023;-90
2022/09/27 09:34:30;;;;;;;0.00;0.00;;;11.50;99.90;;;;;;6193229;23;20020;-89
2022/09/27 09:37:13;;;;;;;0.00;0.00;;;11.60;99.90;;;;;;6224372;23;20016;-88
2022/09/27 09:39:51;;;;;;;0.00;0.00;;;11.70;99.90;;;;;;6194265;23;20051;-88
2022/09/27 09:42:29;;;;;;;0.00;0.00;;;11.80;99.90;;;;;;6218196;23;20154;-90
2022/09/27 09:44:57;;;;;;;0.00;0.00;;;12.00;99.90;;;;;;6218734;23;20020;-90
2022/09/27 09:47:40;;;;;;;0.00;0.00;;;12.10;99.90;;;;;;6218387;23;20294;-90
2022/09/27 09:50:26;;;;;;;0.00;0.00;;;12.20;99.90;;;;;;6193086;23;20348;-90
2022/09/27 09:53:13;;;;;;;0.00;0.00;;;12.40;99.90;;;;;;6219007;23;20023;-88
2022/09/27 09:55:42;;;;;;;0.00;0.00;;;12.40;99.90;;;;;;6218259;23;20023;-87
2022/09/27 09:58:16;;;;;;;1.45;0.20;;;12.40;99.90;;;;;;6217190;23;20022;-89
2022/09/27 10:00:45;;;;;;;0.05;0.05;;;12.30;99.90;;;;;;6193136;23;20015;-88
2022/09/27 10:03:11;;;;;;;0.00;0.00;;;12.30;99.90;;;;;;6192312;23;20479;-88
2022/09/27 10:05:36;;;;;;;0.00;0.00;;;12.20;99.90;;;;;;6168179;23;20016;-88
2022/09/27 10:08:06;;;;;;;0.00;0.00;;;12.10;99.90;;;;;;6168813;23;20020;-88
2022/09/27 10:10:33;;;;;;;0.00;0.00;;;12.10;99.90;;;;;;6217610;23;20016;-88
2022/09/27 10:13:04;;;;;;;;;;;12.10;99.90;;;;;;6193418;23;20091;-86
2022/09/27 10:15:30;;;;;;;0.00;0.00;;;12.10;99.90;;;;;;6193194;23;19915;-87
2022/09/27 10:17:58;;;;;;;0.32;0.00;;;12.10;99.90;;;;;;6192416;23;20227;-88
2022/09/27 10:20:29;;;;;;;0.00;0.00;;;12.10;99.90;;;;;;6217382;23;20027;-88
2022/09/27 10:23:19;;;;;;;0.00;0.00;;;12.10;99.90;;;;;;6192765;23;20016;-88
2022/09/27 10:26:03;;;;;;;0.00;0.00;;;12.10;99.90;;;;;;6217188;23;20012;-88
2022/09/27 10:28:36;;;;;;;0.00;0.00;;;11.90;99.90;;;;;;6217184;23;20016;-88
2022/09/27 10:31:11;;;;;;;0.00;0.00;;;11.80;99.90;;;;;;6192356;23;20441;-91
2022/09/27 10:33:39;;;;;;;0.00;0.00;;;11.50;99.90;;;;;;6217853;23;20008;-88
2022/09/27 10:36:25;;;;;;;0.00;0.00;;;11.30;99.90;;;;;;6217429;23;20357;-86
2022/09/27 10:38:59;;;;;;;0.00;0.00;;;11.10;99.90;;;;;;6217777;23;20012;-88
2022/09/27 10:41:38;;;;;;;0.00;0.00;;;10.90;99.90;;;;;;6217416;23;20027;-87
2022/09/27 10:44:16;;;;;;;0.00;0.00;;;10.70;99.90;;;;;;6192659;23;20020;-86
2022/09/27 10:46:52;;;;;;;0.00;0.00;;;10.50;99.90;;;;;;6194352;23;20017;-87
2022/09/27 10:49:39;;;;;;;0.00;0.00;;;10.40;99.90;;;;;;6219638;23;20110;-88
2022/09/27 10:52:20;;;;;;;0.00;0.00;;;10.30;99.90;;;;;;6219230;23;20013;-87
2022/09/27 10:54:57;;;;;;;0.00;0.00;;;10.20;99.90;;;;;;6219407;23;20012;-87
2022/09/27 10:57:25;;;;;;;0.00;0.00;;;10.20;99.90;;;;;;6218693;23;20020;-86
2022/09/27 11:00:18;;;;;;;0.00;0.00;;;10.20;99.90;;;;;;6219959;23;20026;-86
2022/09/27 11:02:50;;;;;;;0.00;0.00;;;10.30;99.90;;;;;;6219162;23;20063;-86
2022/09/27 11:05:25;;;;;;;0.00;0.00;;;10.40;99.90;;;;;;6219157;23;20013;-89
2022/09/27 11:08:22;;;;;;;0.00;0.00;;;10.50;99.90;;;;;;6219319;23;20031;-87
2022/09/27 11:11:18;;;;;;;0.00;0.00;;;10.60;99.90;;;;;;6218979;23;20012;-86
2022/09/27 11:14:06;;;;;;;0.45;0.10;;;10.80;99.90;;;;;;6219503;23;20012;-87
2022/09/27 11:16:59;;;;;;;0.10;0.00;;;10.80;99.90;;;;;;6193865;23;20341;-87
2022/09/27 11:19:34;;;;;;;0.00;0.00;;;10.90;99.90;;;;;;6193822;23;20020;-87
2022/09/27 11:22:34;;;;;;;0.00;0.00;;;10.90;99.90;;;;;;6194243;23;20023;-85
2022/09/27 11:25:23;;;;;;;0.03;0.03;;;10.90;99.90;;;;;;6194268;23;20016;-84
2022/09/27 11:27:53;;;;;;;0.00;0.00;;;10.70;99.90;;;;;;6219369;23;20023;-85
2022/09/27 11:30:21;;;;;;;0.10;0.00;;;10.50;99.90;;;;;;6218543;23;20059;-88
2022/09/27 11:33:24;;;;;;;0.00;0.00;;;10.40;99.90;;;;;;6219047;23;20012;-86
2022/09/27 11:36:25;;;;;;;0.00;0.00;;;10.40;99.90;;;;;;6219277;23;20373;-85
2022/09/27 11:39:05;;;;;;;0.00;0.00;;;10.40;99.90;;;;;;6219189;23;20016;-86
2022/09/27 11:42:09;;;;;;;0.00;0.00;;;10.50;99.90;;;;;;6218646;23;20027;-86
2022/09/27 11:44:45;;;;;;;0.00;0.00;;;10.90;99.90;;;;;;6193449;23;20345;-87
2022/09/27 11:47:22;;;;;;;0.00;0.00;;;11.20;99.90;;;;;;6219086;23;20457;-85
2022/09/27 11:50:00;;;;;;;;;;;11.40;99.90;;;;;;6194612;23;20016;-87
2022/09/27 11:52:46;;;;;;;0.00;0.00;;;11.70;99.90;;;;;;6219526;23;19916;-89
2022/09/27 11:55:18;;;;;;;0.00;0.00;;;11.90;99.90;;;;;;6194796;23;20022;-87
2022/09/27 11:58:04;;;;;;;0.00;0.00;;;12.20;99.90;;;;;;6193173;23;20036;-86
2022/09/27 12:00:46;;;;;;;0.00;0.00;;;12.50;99.90;;;;;;6173331;23;20090;-86
2022/09/27 12:03:45;;;;;;;0.00;0.00;;;12.50;99.90;;;;;;6219729;23;20348;-86
2022/09/27 12:06:14;;;;;;;0.00;0.00;;;12.50;99.90;;;;;;6193964;23;20031;-87
2022/09/27 12:08:47;;;;;;;0.00;0.00;;;12.60;99.90;;;;;;6219898;23;20012;-87
2022/09/27 12:11:43;;;;;;;0.00;0.00;;;12.70;99.90;;;;;;6218559;23;20353;-87
2022/09/27 12:14:17;;;;;;;0.00;0.00;;;12.90;99.90;;;;;;6165226;23;20452;-87
2022/09/27 12:16:45;;;;;;;0.00;0.00;;;13.00;99.90;;;;;;6193193;23;20035;-87
2022/09/27 12:19:28;;;;;;;0.00;0.00;;;13.10;99.90;;;;;;6169200;23;20030;-87
2022/09/27 12:21:58;;;;;;;0.00;0.00;;;13.10;99.90;;;;;;6195280;23;20107;-87
2022/09/27 12:24:28;;;;;;;0.00;0.00;;;13.00;99.90;;;;;;6193626;23;20349;-88
2022/09/27 12:26:59;;;;;;;0.00;0.00;;;12.80;99.90;;;;;;6169763;23;20452;-87
2022/09/27 12:29:35;;;;;;;0.00;0.00;;;12.60;99.90;;;;;;6218711;23;20023;-86
2022/09/27 12:32:27;;;;;;;0.00;0.00;;;12.50;99.90;;;;;;6218561;23;20048;-87
2022/09/27 12:35:06;;;;;;;0.00;0.00;;;12.50;99.90;;;;;;6218540;23;20031;-87
2022/09/27 12:37:55;;;;;;;0.00;0.00;;;12.40;99.90;;;;;;6218186;23;20012;-88
2022/09/27 12:40:27;;;;;;;0.00;0.00;;;12.30;99.90;;;;;;6219299;23;20125;-94
2022/09/27 12:43:22;;;;;;;;;;;;;;;;;;;;;
2022/09/27 12:46:16;;;;;;;0.00;0.00;;;12.20;99.90;;;;;;6219630;23;20322;-92
2022/09/27 12:49:22;;;;;;;0.00;0.00;;;12.00;99.90;;;;;;6194408;23;20020;-93
2022/09/27 12:52:10;;;;;;;0.03;0.00;;;11.80;99.90;;;;;;6218852;23;20444;-94
2022/09/27 12:54:54;;;;;;;0.00;0.00;;;11.50;99.90;;;;;;6194404;23;20027;-88
2022/09/27 12:57:32;;;;;;;0.00;0.00;;;11.20;99.90;;;;;;6195513;23;20055;-94
2022/09/27 13:00:26;;;;;;;0.20;0.20;;;11.10;99.90;;;;;;6194604;23;20095;-91
2022/09/27 13:03:28;;;;;;;0.00;0.00;;;10.90;99.90;;;;;;6194394;23;20024;-90
2022/09/27 13:06:19;;;;;;;0.00;0.00;;;10.70;99.90;;;;;;6145568;23;20326;-89
2022/09/27 13:09:23;;;;;;;0.00;0.00;;;9.60;99.90;;;;;;6190950;23;20024;-89
2022/09/27 13:12:11;;;;;;;0.00;0.00;;;10.40;99.90;;;;;;6209639;23;20016;-89
2022/09/27 13:15:02;;;;;;;0.00;0.00;;;10.30;99.90;;;;;;6191371;23;20019;-94
2022/09/27 13:18:06;;;;;;;;;;;;;;;;;;;;;
2022/09/27 13:20:35;;;;;;;0.00;0.00;;;9.40;99.90;;;;;;6218302;23;20027;-89
2022/09/27 13:23:28;;;;;;;0.00;0.00;;;10.10;99.90;;;;;;6195583;23;20020;-88
2022/09/27 13:26:12;;;;;;;;;;;;;;;;;;;;;
2022/09/27 13:29:04;;;;;;;0.00;0.00;;;10.70;99.90;;;;;;6218279;23;20027;-92
2022/09/27 13:32:00;;;;;;;0.00;0.00;;;10.20;99.90;;;;;;6169282;23;20095;-90
2022/09/27 13:34:46;;;;;;;0.00;0.00;;;10.20;99.90;;;;;;6192506;23;20016;-92
2022/09/27 13:37:43;;;;;;;0.00;0.00;;;10.30;99.90;;;;;;6192666;23;20020;-92
2022/09/27 13:40:35;;;;;;;0.00;0.00;;;10.30;99.90;;;;;;6193188;23;20567;-96
2022/09/27 13:43:10;;;;;;;0.00;0.00;;;10.40;99.90;;;;;;6169331;23;20026;-91
2022/09/27 13:46:09;;;;;;;;;;;;;;;;;;;;;